Time;durP1;ratioP1;P1;durP2;ratioP2;P2;SDS_P1;SDS_P2;PMS_P1;PMS_P2;Temp;Humidity;BMP_temperature;BMP_pressure;BME280_temperature;BME280_humidity;BME280_pressure;Samples;Min_cycle;Max_cycle;Signal;HPM_P1;HPM_P2
2021/03/19 00:09:47;;;;;;;13.95;6.30;;;-0.20;99.90;;;;;;20939759;28;20413;-78
2021/03/19 00:19:48;;;;;;;12.30;5.65;;;-0.20;99.90;;;;;;20932291;28;20151;-78
2021/03/19 00:29:49;;;;;;;11.38;5.63;;;-0.30;99.90;;;;;;20955002;28;20469;-79
2021/03/19 00:39:50;;;;;;;11.18;5.90;;;-0.30;99.90;;;;;;21020106;28;20024;-77
2021/03/19 00:49:51;;;;;;;19.48;8.10;;;-0.30;99.90;;;;;;21034980;28;20028;-79
2021/03/19 00:59:51;;;;;;;19.80;7.72;;;-0.50;99.90;;;;;;21041925;28;20044;-79
2021/03/19 01:09:52;;;;;;;19.08;8.75;;;-0.40;99.90;;;;;;21039273;28;20390;-79
2021/03/19 01:19:53;;;;;;;14.27;7.50;;;-0.50;99.90;;;;;;21035409;28;20374;-78
2021/03/19 01:29:54;;;;;;;15.57;8.75;;;-0.50;99.90;;;;;;21040184;28;20032;-79
2021/03/19 01:39:55;;;;;;;14.55;7.80;;;-0.50;99.90;;;;;;21047584;28;20590;-79
2021/03/19 01:50:33;;;;;;;15.57;8.23;;;-0.50;99.90;;;;;;21021524;28;20034;-79
2021/03/19 02:01:11;;;;;;;19.77;10.18;;;-0.70;99.90;;;;;;21027752;28;20040;-79
2021/03/19 02:11:50;;;;;;;16.33;8.20;;;-0.90;99.90;;;;;;21023778;28;20032;-78
2021/03/19 02:22:28;;;;;;;19.65;9.35;;;-0.90;99.90;;;;;;21024031;28;20021;-79
2021/03/19 02:32:29;;;;;;;21.00;9.73;;;-0.70;99.90;;;;;;21004868;28;20044;-77
2021/03/19 02:42:32;;;;;;;21.00;9.75;;;-1.00;99.90;;;;;;21014517;28;20084;-79
2021/03/19 02:52:35;;;;;;;22.70;9.85;;;-0.90;99.90;;;;;;21003776;28;20036;-78
2021/03/19 03:02:36;;;;;;;19.25;9.45;;;-1.00;99.90;;;;;;21019141;28;20534;-78
2021/03/19 03:12:37;;;;;;;17.35;7.72;;;-0.90;99.90;;;;;;21019688;28;20105;-77
2021/03/19 03:22:38;;;;;;;12.57;6.45;;;-0.90;99.90;;;;;;20997671;28;20041;-77
2021/03/19 03:32:39;;;;;;;9.55;4.75;;;-1.10;99.90;;;;;;20945520;28;20495;-78
2021/03/19 03:42:40;;;;;;;6.50;3.95;;;-1.20;99.90;;;;;;20944033;28;20052;-78
2021/03/19 03:52:41;;;;;;;11.07;3.63;;;-1.50;99.90;;;;;;20946253;28;20047;-77
2021/03/19 04:02:42;;;;;;;9.35;3.67;;;-1.60;99.90;;;;;;20933541;28;20119;-78
2021/03/19 04:12:44;;;;;;;8.63;3.83;;;-1.50;99.90;;;;;;20935455;28;20033;-77
2021/03/19 04:22:44;;;;;;;8.88;3.90;;;-1.90;99.90;;;;;;20936836;28;20033;-77
2021/03/19 04:32:45;;;;;;;7.82;3.80;;;-1.80;99.90;;;;;;20929460;28;20486;-77
2021/03/19 04:42:47;;;;;;;8.48;4.15;;;-2.00;99.90;;;;;;20915860;28;20037;-77
2021/03/19 04:52:48;;;;;;;9.43;4.25;;;-2.10;99.90;;;;;;20900737;28;20036;-76
2021/03/19 05:02:50;;;;;;;8.70;4.70;;;-2.20;99.90;;;;;;20923722;28;20032;-75
2021/03/19 05:12:51;;;;;;;5.45;3.30;;;-2.30;99.90;;;;;;20912878;28;20032;-74
2021/03/19 05:22:52;;;;;;;7.55;3.72;;;-2.20;99.90;;;;;;20903866;28;20033;-76
2021/03/19 05:32:53;;;;;;;7.43;4.20;;;-2.00;99.90;;;;;;20981332;28;20036;-77
2021/03/19 05:42:54;;;;;;;7.80;3.72;;;-1.80;99.90;;;;;;21003028;28;20041;-75
2021/03/19 05:53:03;;;;;;;8.88;4.95;;;-1.60;99.90;;;;;;21001952;28;20100;-75
2021/03/19 06:03:04;;;;;;;7.70;4.78;;;-1.80;99.90;;;;;;21001528;28;20062;-76
2021/03/19 06:13:05;;;;;;;20.88;6.38;;;-1.80;99.90;;;;;;21001722;28;20488;-75
2021/03/19 06:23:13;;;;;;;11.38;5.95;;;-1.40;99.90;;;;;;20999280;28;20032;-77
2021/03/19 06:33:14;;;;;;;23.45;5.28;;;-1.10;99.90;;;;;;20999865;28;20430;-75
2021/03/19 06:43:18;;;;;;;19.23;6.03;;;-0.70;99.90;;;;;;21030181;28;20033;-78
2021/03/19 06:53:25;;;;;;;10.13;5.68;;;0.20;99.90;;;;;;21024136;28;20039;-77
2021/03/19 07:03:58;;;;;;;13.07;7.03;;;1.20;99.90;;;;;;21013650;28;20071;-79
2021/03/19 07:14:18;;;;;;;11.10;6.80;;;1.50;99.90;;;;;;21012051;28;20114;-78
2021/03/19 07:24:45;;;;;;;15.80;6.97;;;2.00;99.90;;;;;;20959978;28;20395;-77
2021/03/19 07:34:51;;;;;;;14.20;6.35;;;2.40;99.90;;;;;;20925246;28;20384;-78
2021/03/19 07:45:08;;;;;;;8.93;5.15;;;3.70;99.90;;;;;;20926084;28;20032;-77
2021/03/19 07:55:30;;;;;;;12.90;7.45;;;4.00;99.90;;;;;;20929244;28;20029;-78
2021/03/19 08:05:47;;;;;;;15.57;7.13;;;3.70;99.90;;;;;;20936695;28;20571;-79
2021/03/19 08:15:55;;;;;;;12.70;5.97;;;4.70;99.90;;;;;;20953694;28;20025;-77
2021/03/19 08:25:56;;;;;;;11.00;6.10;;;5.60;99.90;;;;;;20931603;28;20086;-80
2021/03/19 08:36:24;;;;;;;12.13;5.83;;;6.90;99.90;;;;;;20949478;28;20068;-81
2021/03/19 08:46:31;;;;;;;12.43;6.82;;;7.20;99.90;;;;;;20913566;28;20538;-79
2021/03/19 08:56:33;;;;;;;14.90;7.65;;;7.50;99.90;;;;;;20939024;28;20058;-79
2021/03/19 09:06:35;;;;;;;10.98;6.03;;;7.50;99.90;;;;;;20909425;28;20032;-78
2021/03/19 09:16:55;;;;;;;14.48;6.88;;;7.40;99.90;;;;;;20926111;28;20057;-78
2021/03/19 09:27:12;;;;;;;9.43;6.28;;;7.70;99.90;;;;;;20957617;28;20061;-79
2021/03/19 09:37:38;;;;;;;20.27;9.90;;;7.30;99.90;;;;;;20955937;28;20067;-80
2021/03/19 09:47:43;;;;;;;15.35;7.88;;;9.10;99.90;;;;;;20956624;28;20749;-79
2021/03/19 09:57:45;;;;;;;15.40;8.55;;;10.40;99.90;;;;;;20934172;28;20055;-78
2021/03/19 10:07:58;;;;;;;12.77;7.43;;;9.40;99.90;;;;;;20952907;28;20510;-80
2021/03/19 10:18:02;;;;;;;11.30;6.90;;;9.10;99.90;;;;;;20989286;28;20033;-80
2021/03/19 10:28:08;;;;;;;11.98;7.63;;;10.60;99.90;;;;;;20929268;28;20032;-79
2021/03/19 10:38:35;;;;;;;14.50;6.95;;;10.00;99.90;;;;;;20920082;28;20553;-79
2021/03/19 10:48:43;;;;;;;13.30;6.65;;;9.70;99.90;;;;;;20974056;28;20062;-79
2021/03/19 10:58:51;;;;;;;12.68;6.53;;;9.30;99.90;;;;;;20963145;28;20024;-79
2021/03/19 11:09:25;;;;;;;18.45;6.88;;;9.00;99.90;;;;;;20959682;28;20505;-80
2021/03/19 11:19:28;;;;;;;10.65;6.10;;;11.40;99.90;;;;;;20958621;28;20040;-79
2021/03/19 11:29:37;;;;;;;14.43;7.30;;;12.20;99.50;;;;;;20942652;28;20051;-80
2021/03/19 11:39:52;;;;;;;9.70;5.45;;;10.20;99.90;;;;;;20949993;28;20033;-80
2021/03/19 11:50:11;;;;;;;11.13;5.10;;;9.60;99.90;;;;;;20950610;28;20025;-79
2021/03/19 12:00:20;;;;;;;10.63;4.82;;;9.90;99.90;;;;;;20910710;28;20021;-79
2021/03/19 12:10:27;;;;;;;6.90;4.97;;;8.50;99.90;;;;;;20953481;28;20036;-80
2021/03/19 12:20:28;;;;;;;10.30;5.28;;;8.30;99.90;;;;;;20926034;28;20043;-78
2021/03/19 12:30:29;;;;;;;10.37;5.00;;;7.60;99.90;;;;;;20980585;28;20052;-77
2021/03/19 12:40:30;;;;;;;9.77;5.70;;;8.20;99.90;;;;;;20946828;28;20035;-78
2021/03/19 12:50:32;;;;;;;10.00;5.30;;;7.90;99.90;;;;;;20970390;28;20060;-77
2021/03/19 13:00:36;;;;;;;8.68;5.25;;;9.50;99.90;;;;;;20990821;28;20051;-79
2021/03/19 13:10:39;;;;;;;8.57;5.10;;;8.10;99.90;;;;;;20990878;28;20040;-78
2021/03/19 13:20:40;;;;;;;9.02;5.10;;;8.30;99.90;;;;;;20992974;28;20047;-79
2021/03/19 13:30:42;;;;;;;12.02;6.25;;;8.50;99.90;;;;;;20996286;28;20056;-79
2021/03/19 13:40:45;;;;;;;13.30;8.00;;;6.00;99.90;;;;;;20987243;28;20108;-77
2021/03/19 13:50:46;;;;;;;14.43;8.15;;;4.60;99.90;;;;;;20997039;28;20073;-78
2021/03/19 14:00:47;;;;;;;12.02;7.32;;;4.10;99.90;;;;;;21010983;28;20517;-77
2021/03/19 14:10:49;;;;;;;14.27;7.80;;;4.00;99.90;;;;;;20994990;28;20036;-78
2021/03/19 14:20:51;;;;;;;11.98;7.30;;;4.00;99.90;;;;;;21017931;28;20111;-78
2021/03/19 14:30:52;;;;;;;12.73;7.40;;;3.70;99.90;;;;;;20972598;28;20041;-78
2021/03/19 14:40:53;;;;;;;;;;;3.20;99.90;;;;;;20906876;28;20040;-77
2021/03/19 14:50:55;;;;;;;12.80;5.57;;;3.70;99.90;;;;;;20922099;28;19909;-76
2021/03/19 15:00:57;;;;;;;15.82;8.05;;;4.30;99.90;;;;;;20887543;28;20135;-79
2021/03/19 15:10:58;;;;;;;20.13;10.05;;;4.30;99.90;;;;;;20929345;28;20381;-79
2021/03/19 15:21:03;;;;;;;14.05;8.18;;;4.50;99.90;;;;;;20910700;28;20033;-79
2021/03/19 15:31:05;;;;;;;9.32;5.47;;;5.10;99.90;;;;;;20928105;28;20065;-77
2021/03/19 15:41:06;;;;;;;8.35;4.93;;;4.60;99.90;;;;;;20925524;28;20025;-78
2021/03/19 15:51:07;;;;;;;9.10;4.93;;;3.50;99.90;;;;;;20929588;28;20040;-79
2021/03/19 16:01:08;;;;;;;8.77;4.05;;;3.00;99.90;;;;;;20924909;28;20059;-79
2021/03/19 16:11:11;;;;;;;13.57;6.40;;;2.60;99.90;;;;;;20933053;28;20037;-80
2021/03/19 16:21:12;;;;;;;17.15;7.88;;;3.10;99.90;;;;;;20938086;28;20067;-78
2021/03/19 16:31:15;;;;;;;12.52;8.00;;;3.30;99.90;;;;;;20962167;28;20067;-80
2021/03/19 16:41:16;;;;;;;7.60;4.47;;;3.40;99.90;;;;;;20954375;28;20147;-76
2021/03/19 16:51:24;;;;;;;7.22;4.72;;;3.40;99.90;;;;;;20915609;28;20055;-78
2021/03/19 17:01:28;;;;;;;12.35;7.00;;;3.40;99.90;;;;;;20913657;28;20500;-79
2021/03/19 17:11:32;;;;;;;12.15;5.80;;;2.60;99.90;;;;;;20940043;28;20043;-78
2021/03/19 17:21:33;;;;;;;10.75;6.03;;;2.20;99.90;;;;;;20976215;28;20029;-79
2021/03/19 17:31:33;;;;;;;;;;;2.00;99.90;;;;;;21016832;28;20020;-79
2021/03/19 17:41:34;;;;;;;9.27;5.20;;;2.00;99.90;;;;;;20985631;28;19917;-78
2021/03/19 17:51:35;;;;;;;20.30;9.23;;;2.10;99.90;;;;;;20983304;28;20039;-78
2021/03/19 18:01:36;;;;;;;31.27;14.88;;;2.20;99.90;;;;;;20977035;28;20028;-78
2021/03/19 18:11:37;;;;;;;;;;;2.00;99.90;;;;;;20982554;28;20024;-79
2021/03/19 18:21:43;;;;;;;25.30;10.20;;;1.80;99.90;;;;;;20958288;28;20002;-79
2021/03/19 18:31:44;;;;;;;17.20;6.78;;;1.90;99.90;;;;;;20977158;28;20830;-78
2021/03/19 18:41:47;;;;;;;;;;;1.70;99.90;;;;;;20982378;28;20403;-78
2021/03/19 18:51:48;;;;;;;13.90;6.65;;;1.80;99.90;;;;;;20966424;28;20278;-78
2021/03/19 19:01:50;;;;;;;;;;;1.80;99.90;;;;;;20990967;28;20040;-76
2021/03/19 19:11:50;;;;;;;23.85;9.10;;;2.00;99.90;;;;;;21003301;28;19912;-78
2021/03/19 19:21:51;;;;;;;;;;;2.00;99.90;;;;;;20991131;28;20028;-76
2021/03/19 19:31:52;;;;;;;13.50;7.22;;;2.10;99.90;;;;;;21004126;28;19908;-76
2021/03/19 19:41:53;;;;;;;31.35;13.40;;;2.20;99.90;;;;;;20988499;28;20037;-76
2021/03/19 19:51:54;;;;;;;13.03;7.00;;;2.30;99.90;;;;;;20963238;28;20024;-77
2021/03/19 20:01:55;;;;;;;27.27;9.75;;;2.20;99.90;;;;;;20927641;28;20770;-76
2021/03/19 20:11:55;;;;;;;;;;;2.20;99.90;;;;;;21017069;28;20028;-79
2021/03/19 20:21:56;;;;;;;11.90;5.65;;;2.10;99.90;;;;;;20999151;28;19919;-78
2021/03/19 20:31:58;;;;;;;11.63;6.50;;;1.90;99.90;;;;;;20984249;28;20067;-77
2021/03/19 20:42:01;;;;;;;19.42;7.00;;;1.90;99.90;;;;;;20956222;28;20049;-79
2021/03/19 20:52:04;;;;;;;9.40;5.68;;;1.70;99.90;;;;;;20894636;28;20025;-77
2021/03/19 21:02:14;;;;;;;10.52;5.45;;;1.60;99.90;;;;;;20901127;28;20041;-79
2021/03/19 21:12:23;;;;;;;13.45;6.72;;;1.40;99.90;;;;;;20871891;28;20040;-77
2021/03/19 21:22:24;;;;;;;11.98;6.43;;;1.40;99.90;;;;;;20827828;28;20087;-77
2021/03/19 21:32:25;;;;;;;14.18;7.88;;;1.10;99.90;;;;;;20847915;28;20065;-77
2021/03/19 21:42:26;;;;;;;13.50;7.47;;;1.30;99.90;;;;;;20830717;28;20034;-78
2021/03/19 21:52:27;;;;;;;15.23;8.10;;;1.20;99.90;;;;;;20838420;28;20581;-77
2021/03/19 22:02:30;;;;;;;12.27;6.15;;;1.10;99.90;;;;;;20838477;28;20040;-77
2021/03/19 22:12:31;;;;;;;12.82;6.43;;;1.20;99.90;;;;;;20834716;28;20047;-78
2021/03/19 22:22:32;;;;;;;17.35;6.15;;;1.20;99.90;;;;;;20840291;28;20059;-77
2021/03/19 22:32:33;;;;;;;12.15;6.30;;;1.30;99.90;;;;;;20833912;28;20450;-76
2021/03/19 22:42:34;;;;;;;13.85;6.78;;;1.30;99.90;;;;;;20836125;28;20033;-76
2021/03/19 22:52:35;;;;;;;19.45;7.53;;;1.30;99.90;;;;;;20830774;28;20042;-76
2021/03/19 23:02:35;;;;;;;;;;;1.30;99.90;;;;;;20828813;28;20068;-76
2021/03/19 23:12:38;;;;;;;13.65;6.57;;;1.20;99.90;;;;;;20830986;28;19916;-76
2021/03/19 23:22:39;;;;;;;13.82;6.95;;;1.10;99.90;;;;;;20832833;28;20040;-76
2021/03/19 23:32:40;;;;;;;19.50;7.32;;;1.00;99.90;;;;;;20821009;28;20047;-77
2021/03/19 23:42:41;;;;;;;13.73;7.45;;;0.90;99.90;;;;;;20835591;28;20047;-76
2021/03/19 23:52:42;;;;;;;14.73;7.85;;;0.80;99.90;;;;;;20839507;28;20049;-76
